sensor_id;sensor_type;location;lat;lon;timestamp;temperature;humidity
18823;DHT22;9540;51.550;7.980;2023-09-30T00:01:57;12.30;99.90
18823;DHT22;9540;51.550;7.980;2023-09-30T00:04:24;12.30;99.90
18823;DHT22;9540;51.550;7.980;2023-09-30T00:06:52;12.30;99.90
18823;DHT22;9540;51.550;7.980;2023-09-30T00:09:19;12.30;99.90
18823;DHT22;9540;51.550;7.980;2023-09-30T00:11:47;12.30;99.90
18823;DHT22;9540;51.550;7.980;2023-09-30T00:14:14;12.30;99.90
18823;DHT22;9540;51.550;7.980;2023-09-30T00:16:42;12.30;99.90
18823;DHT22;9540;51.550;7.980;2023-09-30T00:19:11;12.30;99.90
18823;DHT22;9540;51.550;7.980;2023-09-30T00:21:39;12.30;99.90
18823;DHT22;9540;51.550;7.980;2023-09-30T00:24:06;12.30;99.90
18823;DHT22;9540;51.550;7.980;2023-09-30T00:26:33;12.30;99.90
18823;DHT22;9540;51.550;7.980;2023-09-30T00:29:00;12.40;99.90
18823;DHT22;9540;51.550;7.980;2023-09-30T00:31:29;12.40;99.90
18823;DHT22;9540;51.550;7.980;2023-09-30T00:33:56;12.40;99.90
18823;DHT22;9540;51.550;7.980;2023-09-30T00:36:25;12.40;99.90
18823;DHT22;9540;51.550;7.980;2023-09-30T00:38:52;12.40;99.90
18823;DHT22;9540;51.550;7.980;2023-09-30T00:41:19;12.40;99.90
18823;DHT22;9540;51.550;7.980;2023-09-30T00:43:46;12.40;99.90
18823;DHT22;9540;51.550;7.980;2023-09-30T00:46:18;12.40;99.90
18823;DHT22;9540;51.550;7.980;2023-09-30T00:48:47;12.40;99.90
18823;DHT22;9540;51.550;7.980;2023-09-30T00:51:14;12.30;99.90
18823;DHT22;9540;51.550;7.980;2023-09-30T00:53:43;12.40;99.90
18823;DHT22;9540;51.550;7.980;2023-09-30T00:56:10;12.30;99.90
18823;DHT22;9540;51.550;7.980;2023-09-30T00:58:38;12.40;99.90
18823;DHT22;9540;51.550;7.980;2023-09-30T01:01:06;12.30;99.90
18823;DHT22;9540;51.550;7.980;2023-09-30T01:03:33;12.40;99.90
18823;DHT22;9540;51.550;7.980;2023-09-30T01:06:00;12.40;99.90
18823;DHT22;9540;51.550;7.980;2023-09-30T01:08:27;12.40;99.90
18823;DHT22;9540;51.550;7.980;2023-09-30T01:10:55;12.40;99.90
18823;DHT22;9540;51.550;7.980;2023-09-30T01:13:23;12.40;99.90
18823;DHT22;9540;51.550;7.980;2023-09-30T01:15:50;12.40;99.90
18823;DHT22;9540;51.550;7.980;2023-09-30T01:18:16;12.50;99.90
18823;DHT22;9540;51.550;7.980;2023-09-30T01:20:43;12.40;99.90
18823;DHT22;9540;51.550;7.980;2023-09-30T01:23:12;12.40;99.90
18823;DHT22;9540;51.550;7.980;2023-09-30T01:25:38;12.40;99.90
18823;DHT22;9540;51.550;7.980;2023-09-30T01:28:08;12.40;99.90
18823;DHT22;9540;51.550;7.980;2023-09-30T01:30:36;12.40;99.90
18823;DHT22;9540;51.550;7.980;2023-09-30T01:33:03;12.40;99.90
18823;DHT22;9540;51.550;7.980;2023-09-30T01:35:30;12.40;99.90
18823;DHT22;9540;51.550;7.980;2023-09-30T01:37:57;12.30;99.90
18823;DHT22;9540;51.550;7.980;2023-09-30T01:40:25;12.30;99.90
18823;DHT22;9540;51.550;7.980;2023-09-30T01:42:52;12.30;99.90
18823;DHT22;9540;51.550;7.980;2023-09-30T01:45:19;12.30;99.90
18823;DHT22;9540;51.550;7.980;2023-09-30T01:47:46;12.20;99.90
18823;DHT22;9540;51.550;7.980;2023-09-30T01:50:13;12.30;99.90
18823;DHT22;9540;51.550;7.980;2023-09-30T01:52:40;12.20;99.90
18823;DHT22;9540;51.550;7.980;2023-09-30T01:55:08;12.30;99.90
18823;DHT22;9540;51.550;7.980;2023-09-30T01:57:36;12.30;99.90
18823;DHT22;9540;51.550;7.980;2023-09-30T02:00:03;12.30;99.90
18823;DHT22;9540;51.550;7.980;2023-09-30T02:02:34;12.30;99.90
18823;DHT22;9540;51.550;7.980;2023-09-30T02:05:02;12.30;99.90
18823;DHT22;9540;51.550;7.980;2023-09-30T02:07:29;12.30;99.90
18823;DHT22;9540;51.550;7.980;2023-09-30T02:09:57;12.30;99.90
18823;DHT22;9540;51.550;7.980;2023-09-30T02:12:26;12.30;99.90
18823;DHT22;9540;51.550;7.980;2023-09-30T02:14:54;12.40;99.90
18823;DHT22;9540;51.550;7.980;2023-09-30T02:17:22;12.40;99.90
18823;DHT22;9540;51.550;7.980;2023-09-30T02:19:49;12.40;99.90
18823;DHT22;9540;51.550;7.980;2023-09-30T02:22:15;12.40;99.90
18823;DHT22;9540;51.550;7.980;2023-09-30T02:24:42;12.40;99.90
18823;DHT22;9540;51.550;7.980;2023-09-30T02:27:09;12.40;99.90
18823;DHT22;9540;51.550;7.980;2023-09-30T02:29:36;12.40;99.90
18823;DHT22;9540;51.550;7.980;2023-09-30T02:32:04;12.40;99.90
18823;DHT22;9540;51.550;7.980;2023-09-30T02:34:31;12.40;99.90
18823;DHT22;9540;51.550;7.980;2023-09-30T02:36:58;12.40;99.90
18823;DHT22;9540;51.550;7.980;2023-09-30T02:39:26;12.40;99.90
18823;DHT22;9540;51.550;7.980;2023-09-30T02:41:53;12.40;99.90
18823;DHT22;9540;51.550;7.980;2023-09-30T02:44:20;12.40;99.90
18823;DHT22;9540;51.550;7.980;2023-09-30T02:46:46;12.40;99.90
18823;DHT22;9540;51.550;7.980;2023-09-30T02:49:15;12.40;99.90
18823;DHT22;9540;51.550;7.980;2023-09-30T02:51:42;12.40;99.90
18823;DHT22;9540;51.550;7.980;2023-09-30T02:54:10;12.40;99.90
18823;DHT22;9540;51.550;7.980;2023-09-30T02:56:41;12.40;99.90
18823;DHT22;9540;51.550;7.980;2023-09-30T02:59:07;12.40;99.90
18823;DHT22;9540;51.550;7.980;2023-09-30T03:01:35;12.40;99.90
18823;DHT22;9540;51.550;7.980;2023-09-30T03:04:03;12.40;99.90
18823;DHT22;9540;51.550;7.980;2023-09-30T03:06:34;12.40;99.90
18823;DHT22;9540;51.550;7.980;2023-09-30T03:09:02;12.40;99.90
18823;DHT22;9540;51.550;7.980;2023-09-30T03:11:30;12.40;99.90
18823;DHT22;9540;51.550;7.980;2023-09-30T03:13:57;12.40;99.90
18823;DHT22;9540;51.550;7.980;2023-09-30T03:16:24;12.40;99.90
18823;DHT22;9540;51.550;7.980;2023-09-30T03:18:51;12.40;99.90
18823;DHT22;9540;51.550;7.980;2023-09-30T03:21:21;12.40;99.90
18823;DHT22;9540;51.550;7.980;2023-09-30T03:23:49;12.40;99.90
18823;DHT22;9540;51.550;7.980;2023-09-30T03:26:16;12.40;99.90
18823;DHT22;9540;51.550;7.980;2023-09-30T03:28:43;12.30;99.90
18823;DHT22;9540;51.550;7.980;2023-09-30T03:31:10;12.30;99.90
18823;DHT22;9540;51.550;7.980;2023-09-30T03:33:37;12.20;99.90
18823;DHT22;9540;51.550;7.980;2023-09-30T03:36:07;12.10;99.90
18823;DHT22;9540;51.550;7.980;2023-09-30T03:38:34;12.10;99.90
18823;DHT22;9540;51.550;7.980;2023-09-30T03:41:03;12.00;99.90
18823;DHT22;9540;51.550;7.980;2023-09-30T03:43:33;12.00;99.90
18823;DHT22;9540;51.550;7.980;2023-09-30T03:46:02;11.90;99.90
18823;DHT22;9540;51.550;7.980;2023-09-30T03:48:29;11.90;99.90
18823;DHT22;9540;51.550;7.980;2023-09-30T03:50:57;11.80;99.90
18823;DHT22;9540;51.550;7.980;2023-09-30T03:53:34;11.80;99.90
18823;DHT22;9540;51.550;7.980;2023-09-30T03:56:02;11.80;99.90
18823;DHT22;9540;51.550;7.980;2023-09-30T03:58:29;11.70;99.90
18823;DHT22;9540;51.550;7.980;2023-09-30T04:00:56;11.80;99.90
18823;DHT22;9540;51.550;7.980;2023-09-30T04:03:23;11.80;99.90
18823;DHT22;9540;51.550;7.980;2023-09-30T04:05:50;11.80;99.90
18823;DHT22;9540;51.550;7.980;2023-09-30T04:08:18;11.70;99.90
18823;DHT22;9540;51.550;7.980;2023-09-30T04:10:47;11.60;99.90
18823;DHT22;9540;51.550;7.980;2023-09-30T04:13:16;11.60;99.90
18823;DHT22;9540;51.550;7.980;2023-09-30T04:15:44;11.60;99.90
18823;DHT22;9540;51.550;7.980;2023-09-30T04:18:12;11.60;99.90
18823;DHT22;9540;51.550;7.980;2023-09-30T04:20:39;11.50;99.90
18823;DHT22;9540;51.550;7.980;2023-09-30T04:23:06;11.50;99.90
18823;DHT22;9540;51.550;7.980;2023-09-30T04:25:35;11.50;99.90
18823;DHT22;9540;51.550;7.980;2023-09-30T04:28:02;11.50;99.90
18823;DHT22;9540;51.550;7.980;2023-09-30T04:30:31;11.40;99.90
18823;DHT22;9540;51.550;7.980;2023-09-30T04:32:58;11.40;99.90
18823;DHT22;9540;51.550;7.980;2023-09-30T04:35:26;11.40;99.90
18823;DHT22;9540;51.550;7.980;2023-09-30T04:37:56;11.40;99.90
18823;DHT22;9540;51.550;7.980;2023-09-30T04:40:26;11.30;99.90
18823;DHT22;9540;51.550;7.980;2023-09-30T04:42:55;11.30;99.90
18823;DHT22;9540;51.550;7.980;2023-09-30T04:45:24;11.30;99.90
18823;DHT22;9540;51.550;7.980;2023-09-30T04:47:53;11.20;99.90
18823;DHT22;9540;51.550;7.980;2023-09-30T04:50:21;11.20;99.90
18823;DHT22;9540;51.550;7.980;2023-09-30T04:52:50;11.20;99.90
18823;DHT22;9540;51.550;7.980;2023-09-30T04:55:17;11.20;99.90
18823;DHT22;9540;51.550;7.980;2023-09-30T04:57:45;11.20;99.90
18823;DHT22;9540;51.550;7.980;2023-09-30T05:00:14;11.20;99.90
18823;DHT22;9540;51.550;7.980;2023-09-30T05:02:43;11.20;99.90
18823;DHT22;9540;51.550;7.980;2023-09-30T05:05:11;11.20;99.90
18823;DHT22;9540;51.550;7.980;2023-09-30T05:07:38;11.10;99.90
18823;DHT22;9540;51.550;7.980;2023-09-30T05:10:06;11.20;99.90
18823;DHT22;9540;51.550;7.980;2023-09-30T05:12:36;11.10;99.90
18823;DHT22;9540;51.550;7.980;2023-09-30T05:15:04;11.10;99.90
18823;DHT22;9540;51.550;7.980;2023-09-30T05:17:31;11.10;99.90
18823;DHT22;9540;51.550;7.980;2023-09-30T05:19:58;11.10;99.90
18823;DHT22;9540;51.550;7.980;2023-09-30T05:22:27;11.10;99.90
18823;DHT22;9540;51.550;7.980;2023-09-30T05:24:55;11.10;99.90
18823;DHT22;9540;51.550;7.980;2023-09-30T05:27:22;11.10;99.90
18823;DHT22;9540;51.550;7.980;2023-09-30T05:29:50;11.10;99.90
18823;DHT22;9540;51.550;7.980;2023-09-30T05:32:17;11.10;99.90
18823;DHT22;9540;51.550;7.980;2023-09-30T05:34:44;11.20;99.90
18823;DHT22;9540;51.550;7.980;2023-09-30T05:37:11;11.20;99.90
18823;DHT22;9540;51.550;7.980;2023-09-30T05:39:39;11.20;99.90
18823;DHT22;9540;51.550;7.980;2023-09-30T05:42:06;11.20;99.90
18823;DHT22;9540;51.550;7.980;2023-09-30T05:44:33;11.20;99.90
18823;DHT22;9540;51.550;7.980;2023-09-30T05:47:00;11.20;99.90
18823;DHT22;9540;51.550;7.980;2023-09-30T05:49:27;11.20;99.90
18823;DHT22;9540;51.550;7.980;2023-09-30T05:51:54;11.20;99.90
18823;DHT22;9540;51.550;7.980;2023-09-30T05:54:21;11.30;99.90
18823;DHT22;9540;51.550;7.980;2023-09-30T05:56:50;11.30;99.90
18823;DHT22;9540;51.550;7.980;2023-09-30T05:59:17;11.40;99.90
18823;DHT22;9540;51.550;7.980;2023-09-30T06:01:43;11.40;99.90
18823;DHT22;9540;51.550;7.980;2023-09-30T06:04:12;11.50;99.90
18823;DHT22;9540;51.550;7.980;2023-09-30T06:06:38;11.50;99.90
18823;DHT22;9540;51.550;7.980;2023-09-30T06:09:06;11.50;99.90
18823;DHT22;9540;51.550;7.980;2023-09-30T06:11:34;11.60;99.90
18823;DHT22;9540;51.550;7.980;2023-09-30T06:14:03;11.70;99.90
18823;DHT22;9540;51.550;7.980;2023-09-30T06:16:32;11.70;99.90
18823;DHT22;9540;51.550;7.980;2023-09-30T06:18:59;11.80;99.90
18823;DHT22;9540;51.550;7.980;2023-09-30T06:21:26;12.00;99.90
18823;DHT22;9540;51.550;7.980;2023-09-30T06:23:54;12.00;99.90
18823;DHT22;9540;51.550;7.980;2023-09-30T06:26:22;12.10;99.90
18823;DHT22;9540;51.550;7.980;2023-09-30T06:28:50;12.20;99.90
18823;DHT22;9540;51.550;7.980;2023-09-30T06:31:21;12.20;99.90
18823;DHT22;9540;51.550;7.980;2023-09-30T06:33:48;12.30;99.90
18823;DHT22;9540;51.550;7.980;2023-09-30T06:36:15;12.40;99.90
18823;DHT22;9540;51.550;7.980;2023-09-30T06:38:43;12.50;99.90
18823;DHT22;9540;51.550;7.980;2023-09-30T06:41:15;12.50;99.90
18823;DHT22;9540;51.550;7.980;2023-09-30T06:43:42;12.60;99.90
18823;DHT22;9540;51.550;7.980;2023-09-30T06:46:09;12.70;99.90
18823;DHT22;9540;51.550;7.980;2023-09-30T06:48:38;12.70;99.90
18823;DHT22;9540;51.550;7.980;2023-09-30T06:51:06;12.70;99.90
18823;DHT22;9540;51.550;7.980;2023-09-30T06:53:33;12.70;99.90
18823;DHT22;9540;51.550;7.980;2023-09-30T06:55:59;12.70;99.90
18823;DHT22;9540;51.550;7.980;2023-09-30T06:58:27;12.80;99.90
18823;DHT22;9540;51.550;7.980;2023-09-30T07:00:55;12.90;99.90
18823;DHT22;9540;51.550;7.980;2023-09-30T07:03:22;12.90;99.90
18823;DHT22;9540;51.550;7.980;2023-09-30T07:05:50;12.90;99.90
18823;DHT22;9540;51.550;7.980;2023-09-30T07:08:20;12.90;99.90
18823;DHT22;9540;51.550;7.980;2023-09-30T07:10:47;13.00;99.90
18823;DHT22;9540;51.550;7.980;2023-09-30T07:13:15;13.00;99.90
18823;DHT22;9540;51.550;7.980;2023-09-30T07:15:42;13.00;99.90
18823;DHT22;9540;51.550;7.980;2023-09-30T07:18:08;13.10;99.90
18823;DHT22;9540;51.550;7.980;2023-09-30T07:20:36;13.10;99.90
18823;DHT22;9540;51.550;7.980;2023-09-30T07:23:05;13.20;99.90
18823;DHT22;9540;51.550;7.980;2023-09-30T07:25:32;13.20;99.90
18823;DHT22;9540;51.550;7.980;2023-09-30T07:28:00;13.30;99.90
18823;DHT22;9540;51.550;7.980;2023-09-30T07:30:27;13.40;99.90
18823;DHT22;9540;51.550;7.980;2023-09-30T07:32:54;13.50;99.90
18823;DHT22;9540;51.550;7.980;2023-09-30T07:35:23;13.60;99.90
18823;DHT22;9540;51.550;7.980;2023-09-30T07:37:50;13.70;99.90
18823;DHT22;9540;51.550;7.980;2023-09-30T07:40:20;13.80;99.90
18823;DHT22;9540;51.550;7.980;2023-09-30T07:42:47;13.90;99.90
18823;DHT22;9540;51.550;7.980;2023-09-30T07:45:15;14.00;99.90
18823;DHT22;9540;51.550;7.980;2023-09-30T07:47:43;14.10;99.90
18823;DHT22;9540;51.550;7.980;2023-09-30T07:50:12;14.10;99.90
18823;DHT22;9540;51.550;7.980;2023-09-30T07:52:39;14.20;99.90
18823;DHT22;9540;51.550;7.980;2023-09-30T07:55:07;14.30;99.90
18823;DHT22;9540;51.550;7.980;2023-09-30T07:57:36;14.40;99.90
18823;DHT22;9540;51.550;7.980;2023-09-30T08:00:05;14.40;99.90
18823;DHT22;9540;51.550;7.980;2023-09-30T08:02:34;14.50;99.90
18823;DHT22;9540;51.550;7.980;2023-09-30T08:05:02;14.50;99.90
18823;DHT22;9540;51.550;7.980;2023-09-30T08:07:29;14.60;99.90
18823;DHT22;9540;51.550;7.980;2023-09-30T08:09:56;14.60;99.90
18823;DHT22;9540;51.550;7.980;2023-09-30T08:12:23;14.60;99.90
18823;DHT22;9540;51.550;7.980;2023-09-30T08:14:52;14.60;99.90
18823;DHT22;9540;51.550;7.980;2023-09-30T08:17:19;14.60;99.90
18823;DHT22;9540;51.550;7.980;2023-09-30T08:19:46;14.60;99.90
18823;DHT22;9540;51.550;7.980;2023-09-30T08:22:13;14.70;99.90
18823;DHT22;9540;51.550;7.980;2023-09-30T08:24:40;14.70;99.90
18823;DHT22;9540;51.550;7.980;2023-09-30T08:27:07;14.80;99.90
18823;DHT22;9540;51.550;7.980;2023-09-30T08:29:34;14.90;99.90
18823;DHT22;9540;51.550;7.980;2023-09-30T08:32:04;15.00;99.90
18823;DHT22;9540;51.550;7.980;2023-09-30T08:34:32;15.10;99.90
18823;DHT22;9540;51.550;7.980;2023-09-30T08:36:59;15.10;99.90
18823;DHT22;9540;51.550;7.980;2023-09-30T08:39:27;15.20;99.90
18823;DHT22;9540;51.550;7.980;2023-09-30T08:41:55;15.20;99.90
18823;DHT22;9540;51.550;7.980;2023-09-30T08:44:22;15.30;99.90
18823;DHT22;9540;51.550;7.980;2023-09-30T08:46:50;15.40;99.90
18823;DHT22;9540;51.550;7.980;2023-09-30T08:49:19;15.50;99.90
18823;DHT22;9540;51.550;7.980;2023-09-30T08:51:48;15.50;99.90
18823;DHT22;9540;51.550;7.980;2023-09-30T08:54:16;15.60;99.90
18823;DHT22;9540;51.550;7.980;2023-09-30T08:56:47;15.60;99.90
18823;DHT22;9540;51.550;7.980;2023-09-30T08:59:14;15.60;99.90
18823;DHT22;9540;51.550;7.980;2023-09-30T09:01:41;15.70;99.90
18823;DHT22;9540;51.550;7.980;2023-09-30T09:04:09;15.70;99.90
18823;DHT22;9540;51.550;7.980;2023-09-30T09:06:37;15.80;99.90
18823;DHT22;9540;51.550;7.980;2023-09-30T09:09:14;15.90;99.90
18823;DHT22;9540;51.550;7.980;2023-09-30T09:11:42;15.90;99.90
18823;DHT22;9540;51.550;7.980;2023-09-30T09:14:09;16.00;99.90
18823;DHT22;9540;51.550;7.980;2023-09-30T09:16:36;16.10;99.90
18823;DHT22;9540;51.550;7.980;2023-09-30T09:19:13;16.20;99.90
18823;DHT22;9540;51.550;7.980;2023-09-30T09:21:53;16.30;99.90
18823;DHT22;9540;51.550;7.980;2023-09-30T09:24:28;16.40;99.90
18823;DHT22;9540;51.550;7.980;2023-09-30T09:27:04;16.60;99.90
18823;DHT22;9540;51.550;7.980;2023-09-30T09:29:32;16.60;99.90
18823;DHT22;9540;51.550;7.980;2023-09-30T09:32:12;16.60;99.90
18823;DHT22;9540;51.550;7.980;2023-09-30T09:34:40;16.60;99.90
18823;DHT22;9540;51.550;7.980;2023-09-30T09:37:17;16.70;99.90
18823;DHT22;9540;51.550;7.980;2023-09-30T09:39:50;16.70;99.90
18823;DHT22;9540;51.550;7.980;2023-09-30T09:42:28;16.70;99.90
18823;DHT22;9540;51.550;7.980;2023-09-30T09:44:57;16.70;99.90
18823;DHT22;9540;51.550;7.980;2023-09-30T09:47:24;16.70;99.90
18823;DHT22;9540;51.550;7.980;2023-09-30T09:49:52;16.60;99.90
18823;DHT22;9540;51.550;7.980;2023-09-30T09:52:21;16.70;99.90
18823;DHT22;9540;51.550;7.980;2023-09-30T09:54:48;16.70;99.90
18823;DHT22;9540;51.550;7.980;2023-09-30T09:57:17;16.80;99.90
18823;DHT22;9540;51.550;7.980;2023-09-30T09:59:45;16.90;99.90
18823;DHT22;9540;51.550;7.980;2023-09-30T10:02:14;16.90;99.90
18823;DHT22;9540;51.550;7.980;2023-09-30T10:04:43;17.10;99.90
18823;DHT22;9540;51.550;7.980;2023-09-30T10:07:14;17.10;99.90
18823;DHT22;9540;51.550;7.980;2023-09-30T10:09:47;17.30;99.90
18823;DHT22;9540;51.550;7.980;2023-09-30T10:12:16;17.40;99.90
18823;DHT22;9540;51.550;7.980;2023-09-30T10:14:43;17.50;99.90
18823;DHT22;9540;51.550;7.980;2023-09-30T10:17:11;17.60;99.90
18823;DHT22;9540;51.550;7.980;2023-09-30T10:20:05;17.70;99.90
18823;DHT22;9540;51.550;7.980;2023-09-30T10:22:33;17.70;99.90
18823;DHT22;9540;51.550;7.980;2023-09-30T10:25:01;17.70;99.90
18823;DHT22;9540;51.550;7.980;2023-09-30T10:27:48;17.70;99.90
18823;DHT22;9540;51.550;7.980;2023-09-30T10:30:15;17.80;99.90
18823;DHT22;9540;51.550;7.980;2023-09-30T10:33:09;17.80;99.90
18823;DHT22;9540;51.550;7.980;2023-09-30T10:35:50;17.70;99.90
18823;DHT22;9540;51.550;7.980;2023-09-30T10:38:38;17.60;99.90
18823;DHT22;9540;51.550;7.980;2023-09-30T10:41:10;17.60;99.90
18823;DHT22;9540;51.550;7.980;2023-09-30T10:43:39;17.60;99.90
18823;DHT22;9540;51.550;7.980;2023-09-30T10:46:31;17.60;99.90
18823;DHT22;9540;51.550;7.980;2023-09-30T10:49:18;17.70;99.90
18823;DHT22;9540;51.550;7.980;2023-09-30T10:51:57;17.70;99.90
18823;DHT22;9540;51.550;7.980;2023-09-30T10:54:27;17.70;99.90
18823;DHT22;9540;51.550;7.980;2023-09-30T10:56:56;17.70;99.90
18823;DHT22;9540;51.550;7.980;2023-09-30T10:59:26;17.60;99.90
18823;DHT22;9540;51.550;7.980;2023-09-30T11:01:53;17.60;99.90
18823;DHT22;9540;51.550;7.980;2023-09-30T11:04:20;17.60;99.90
18823;DHT22;9540;51.550;7.980;2023-09-30T11:06:47;17.60;99.90
18823;DHT22;9540;51.550;7.980;2023-09-30T11:09:18;17.70;99.90
18823;DHT22;9540;51.550;7.980;2023-09-30T11:11:46;17.70;99.90
18823;DHT22;9540;51.550;7.980;2023-09-30T11:14:24;17.70;99.90
18823;DHT22;9540;51.550;7.980;2023-09-30T11:16:53;17.70;99.90
18823;DHT22;9540;51.550;7.980;2023-09-30T11:19:21;17.60;99.90
18823;DHT22;9540;51.550;7.980;2023-09-30T11:21:49;17.50;99.90
18823;DHT22;9540;51.550;7.980;2023-09-30T11:24:16;17.40;99.90
18823;DHT22;9540;51.550;7.980;2023-09-30T11:26:43;17.20;99.90
18823;DHT22;9540;51.550;7.980;2023-09-30T11:29:10;17.10;99.90
18823;DHT22;9540;51.550;7.980;2023-09-30T11:31:40;17.00;99.90
18823;DHT22;9540;51.550;7.980;2023-09-30T11:34:09;16.90;99.90
18823;DHT22;9540;51.550;7.980;2023-09-30T11:36:38;16.90;99.90
18823;DHT22;9540;51.550;7.980;2023-09-30T11:39:08;17.00;99.90
18823;DHT22;9540;51.550;7.980;2023-09-30T11:41:39;17.00;99.90
18823;DHT22;9540;51.550;7.980;2023-09-30T11:44:08;17.00;99.90
18823;DHT22;9540;51.550;7.980;2023-09-30T11:46:51;17.00;99.90
18823;DHT22;9540;51.550;7.980;2023-09-30T11:49:27;17.10;99.90
18823;DHT22;9540;51.550;7.980;2023-09-30T11:51:54;17.00;99.90
18823;DHT22;9540;51.550;7.980;2023-09-30T11:54:22;16.90;99.90
18823;DHT22;9540;51.550;7.980;2023-09-30T11:56:49;16.80;99.90
18823;DHT22;9540;51.550;7.980;2023-09-30T11:59:17;16.70;99.90
18823;DHT22;9540;51.550;7.980;2023-09-30T12:01:48;16.70;99.90
18823;DHT22;9540;51.550;7.980;2023-09-30T12:04:16;16.70;99.90
18823;DHT22;9540;51.550;7.980;2023-09-30T12:06:45;16.60;99.90
18823;DHT22;9540;51.550;7.980;2023-09-30T12:09:12;16.70;99.90
18823;DHT22;9540;51.550;7.980;2023-09-30T12:11:41;16.70;99.90
18823;DHT22;9540;51.550;7.980;2023-09-30T12:14:10;16.80;99.90
18823;DHT22;9540;51.550;7.980;2023-09-30T12:16:37;17.00;99.90
18823;DHT22;9540;51.550;7.980;2023-09-30T12:19:04;17.20;99.90
18823;DHT22;9540;51.550;7.980;2023-09-30T12:21:33;17.30;99.90
18823;DHT22;9540;51.550;7.980;2023-09-30T12:24:00;17.40;99.90
18823;DHT22;9540;51.550;7.980;2023-09-30T12:26:28;17.50;99.90
18823;DHT22;9540;51.550;7.980;2023-09-30T12:28:55;17.60;99.90
18823;DHT22;9540;51.550;7.980;2023-09-30T12:31:22;17.70;99.90
18823;DHT22;9540;51.550;7.980;2023-09-30T12:33:49;17.70;99.90
18823;DHT22;9540;51.550;7.980;2023-09-30T12:36:18;17.80;99.90
18823;DHT22;9540;51.550;7.980;2023-09-30T12:38:47;17.90;99.90
18823;DHT22;9540;51.550;7.980;2023-09-30T12:41:14;17.90;99.90
18823;DHT22;9540;51.550;7.980;2023-09-30T12:43:41;17.90;99.90
18823;DHT22;9540;51.550;7.980;2023-09-30T12:46:08;17.80;99.90
18823;DHT22;9540;51.550;7.980;2023-09-30T12:48:35;17.70;99.90
18823;DHT22;9540;51.550;7.980;2023-09-30T12:51:04;17.70;99.90
18823;DHT22;9540;51.550;7.980;2023-09-30T12:53:32;17.90;99.90
18823;DHT22;9540;51.550;7.980;2023-09-30T12:56:00;18.00;99.90
18823;DHT22;9540;51.550;7.980;2023-09-30T12:58:27;18.10;99.90
18823;DHT22;9540;51.550;7.980;2023-09-30T13:00:54;18.20;99.90
18823;DHT22;9540;51.550;7.980;2023-09-30T13:03:21;18.20;99.90
18823;DHT22;9540;51.550;7.980;2023-09-30T13:05:49;18.20;99.90
18823;DHT22;9540;51.550;7.980;2023-09-30T13:08:16;18.20;99.90
18823;DHT22;9540;51.550;7.980;2023-09-30T13:10:43;18.30;99.90
18823;DHT22;9540;51.550;7.980;2023-09-30T13:13:12;18.30;99.90
18823;DHT22;9540;51.550;7.980;2023-09-30T13:15:39;18.30;99.90
18823;DHT22;9540;51.550;7.980;2023-09-30T13:18:07;18.30;99.90
18823;DHT22;9540;51.550;7.980;2023-09-30T13:20:33;18.40;99.90
18823;DHT22;9540;51.550;7.980;2023-09-30T13:23:00;18.40;99.90
18823;DHT22;9540;51.550;7.980;2023-09-30T13:25:29;18.30;99.90
18823;DHT22;9540;51.550;7.980;2023-09-30T13:27:55;18.20;99.90
18823;DHT22;9540;51.550;7.980;2023-09-30T13:30:24;18.10;99.90
18823;DHT22;9540;51.550;7.980;2023-09-30T13:32:52;18.00;99.90
18823;DHT22;9540;51.550;7.980;2023-09-30T13:35:19;17.80;99.90
18823;DHT22;9540;51.550;7.980;2023-09-30T13:37:45;17.70;99.90
18823;DHT22;9540;51.550;7.980;2023-09-30T13:40:13;17.60;99.90
18823;DHT22;9540;51.550;7.980;2023-09-30T13:42:40;17.50;99.90
18823;DHT22;9540;51.550;7.980;2023-09-30T13:45:08;17.60;99.90
18823;DHT22;9540;51.550;7.980;2023-09-30T13:47:37;17.60;99.90
18823;DHT22;9540;51.550;7.980;2023-09-30T13:50:05;17.70;99.90
18823;DHT22;9540;51.550;7.980;2023-09-30T13:52:33;17.70;99.90
18823;DHT22;9540;51.550;7.980;2023-09-30T13:55:00;17.80;99.90
18823;DHT22;9540;51.550;7.980;2023-09-30T13:57:28;17.80;99.90
18823;DHT22;9540;51.550;7.980;2023-09-30T13:59:55;17.70;99.90
18823;DHT22;9540;51.550;7.980;2023-09-30T14:02:22;17.70;99.90
18823;DHT22;9540;51.550;7.980;2023-09-30T14:04:50;17.70;99.90
18823;DHT22;9540;51.550;7.980;2023-09-30T14:07:19;17.60;99.90
18823;DHT22;9540;51.550;7.980;2023-09-30T14:09:46;17.70;99.90
18823;DHT22;9540;51.550;7.980;2023-09-30T14:12:13;17.80;99.90
18823;DHT22;9540;51.550;7.980;2023-09-30T14:14:40;18.00;99.90
18823;DHT22;9540;51.550;7.980;2023-09-30T14:17:07;18.10;99.90
18823;DHT22;9540;51.550;7.980;2023-09-30T14:19:36;18.20;99.90
18823;DHT22;9540;51.550;7.980;2023-09-30T14:22:05;18.30;99.90
18823;DHT22;9540;51.550;7.980;2023-09-30T14:24:33;18.30;99.90
18823;DHT22;9540;51.550;7.980;2023-09-30T14:27:01;18.30;99.90
18823;DHT22;9540;51.550;7.980;2023-09-30T14:29:28;18.30;99.90
18823;DHT22;9540;51.550;7.980;2023-09-30T14:31:55;18.20;99.90
18823;DHT22;9540;51.550;7.980;2023-09-30T14:34:23;18.20;99.90
18823;DHT22;9540;51.550;7.980;2023-09-30T14:36:50;18.20;99.90
18823;DHT22;9540;51.550;7.980;2023-09-30T14:39:18;18.10;99.90
18823;DHT22;9540;51.550;7.980;2023-09-30T14:41:45;18.10;99.90
18823;DHT22;9540;51.550;7.980;2023-09-30T14:44:12;18.10;99.90
18823;DHT22;9540;51.550;7.980;2023-09-30T14:46:39;18.20;99.90
18823;DHT22;9540;51.550;7.980;2023-09-30T14:49:06;18.20;99.90
18823;DHT22;9540;51.550;7.980;2023-09-30T14:51:33;18.10;99.90
18823;DHT22;9540;51.550;7.980;2023-09-30T14:54:00;18.10;99.90
18823;DHT22;9540;51.550;7.980;2023-09-30T14:56:29;18.10;99.90
18823;DHT22;9540;51.550;7.980;2023-09-30T14:58:55;18.00;99.90
18823;DHT22;9540;51.550;7.980;2023-09-30T15:01:22;18.00;99.90
18823;DHT22;9540;51.550;7.980;2023-09-30T15:03:49;18.00;99.90
18823;DHT22;9540;51.550;7.980;2023-09-30T15:06:16;18.00;99.90
18823;DHT22;9540;51.550;7.980;2023-09-30T15:08:43;18.00;99.90
18823;DHT22;9540;51.550;7.980;2023-09-30T15:11:13;18.00;99.90
18823;DHT22;9540;51.550;7.980;2023-09-30T15:13:42;17.90;99.90
18823;DHT22;9540;51.550;7.980;2023-09-30T15:16:16;17.90;99.90
18823;DHT22;9540;51.550;7.980;2023-09-30T15:18:44;17.80;99.90
18823;DHT22;9540;51.550;7.980;2023-09-30T15:21:11;17.80;99.90
18823;DHT22;9540;51.550;7.980;2023-09-30T15:23:38;17.70;99.90
18823;DHT22;9540;51.550;7.980;2023-09-30T15:26:05;17.60;99.90
18823;DHT22;9540;51.550;7.980;2023-09-30T15:28:32;17.60;99.90
18823;DHT22;9540;51.550;7.980;2023-09-30T15:31:00;17.50;99.90
18823;DHT22;9540;51.550;7.980;2023-09-30T15:33:28;17.50;99.90
18823;DHT22;9540;51.550;7.980;2023-09-30T15:35:55;17.50;99.90
18823;DHT22;9540;51.550;7.980;2023-09-30T15:38:22;17.40;99.90
18823;DHT22;9540;51.550;7.980;2023-09-30T15:40:53;17.40;99.90
18823;DHT22;9540;51.550;7.980;2023-09-30T15:43:23;17.40;99.90
18823;DHT22;9540;51.550;7.980;2023-09-30T15:45:50;17.40;99.90
18823;DHT22;9540;51.550;7.980;2023-09-30T15:48:20;17.30;99.90
18823;DHT22;9540;51.550;7.980;2023-09-30T15:50:47;17.20;99.90
18823;DHT22;9540;51.550;7.980;2023-09-30T15:53:14;17.20;99.90